OVD weather

Asturias Airport
RanĂ³n, Asturias, Spain

Public forecast

Using degrees Celsius for public forecast. Weather courtesy of forecast.io.

Current aviation weather report (METAR) for Asturias Airport

Retrieved 2019/12/12 00:30 UTC (0 seconds ago):

LEAS 120030Z AUTO 26010KT 230V300 9999 FEW046 BKN060 BKN070 11/06 Q1020

Aviation forecast (TAF) for Asturias Airport

Retrieved 2019/12/11 21:27 UTC (3 hours ago):

TAF LEAS 112000Z 1121/1221 24012KT 9999 BKN040 TX14/1221Z TN09/1203Z TEMPO 1121/1221 3000 RA TEMPO 1212/1221 1500 +RA BKN010 BKN014 TEMPO 1121/1209 25015G25KT TEMPO 1209/1221 27020G35KT PROB40 TEMPO 1212/1221 27025G40KT